createdAt,value
2019-05-06T00:01:53.951Z,4.80
2019-05-06T00:04:25.543Z,5.50
2019-05-06T00:06:56.959Z,8.55
2019-05-06T00:09:28.387Z,11.85
2019-05-06T00:11:59.871Z,11.55
2019-05-06T00:14:31.376Z,13.35
2019-05-06T00:17:03.867Z,13.53
2019-05-06T00:19:36.471Z,14.38
2019-05-06T00:22:07.825Z,14.68
2019-05-06T00:24:44.041Z,12.60
2019-05-06T00:27:17.273Z,11.05
2019-05-06T00:29:49.008Z,9.93
2019-05-06T00:32:20.307Z,11.22
2019-05-06T00:34:51.631Z,12.25
2019-05-06T00:37:24.132Z,11.05
2019-05-06T00:39:59.988Z,7.62
2019-05-06T00:42:34.726Z,6.10
2019-05-06T00:45:07.622Z,5.20
2019-05-06T00:47:39.028Z,5.37
2019-05-06T00:50:10.780Z,4.92
2019-05-06T00:52:44.586Z,5.15
2019-05-06T00:55:15.491Z,4.87
2019-05-06T00:57:46.811Z,5.03
2019-05-06T01:00:21.294Z,5.08
2019-05-06T01:02:54.295Z,4.75
2019-05-06T01:05:25.787Z,4.90
2019-05-06T01:07:57.236Z,4.83
2019-05-06T01:10:28.845Z,4.85
2019-05-06T01:13:04.091Z,4.78
2019-05-06T01:15:35.174Z,5.15
2019-05-06T01:18:06.621Z,5.35
2019-05-06T01:20:37.944Z,5.47
2019-05-06T01:23:10.845Z,5.30
2019-05-06T01:25:43.812Z,5.05
2019-05-06T01:28:15.569Z,4.90
2019-05-06T01:30:47.250Z,4.72
2019-05-06T01:33:20.269Z,4.87
2019-05-06T01:35:54.063Z,4.85
2019-05-06T01:38:29.239Z,5.15
2019-05-06T01:41:03.981Z,5.05
2019-05-06T01:43:37.308Z,5.25
2019-05-06T01:46:08.981Z,4.50
2019-05-06T01:48:49.676Z,5.05
2019-05-06T01:51:24.100Z,5.50
2019-05-06T01:53:55.184Z,5.20
2019-05-06T01:56:26.440Z,4.97
2019-05-06T01:58:57.771Z,4.97
2019-05-06T02:01:29.163Z,5.15
2019-05-06T02:04:00.877Z,5.08
2019-05-06T02:06:34.260Z,5.03
2019-05-06T02:09:09.763Z,5.15
2019-05-06T02:11:41.063Z,5.30
2019-05-06T02:14:13.981Z,4.90
2019-05-06T02:16:45.617Z,5.20
2019-05-06T02:19:18.485Z,5.50
2019-05-06T02:21:51.582Z,5.60
2019-05-06T02:24:27.620Z,5.42
2019-05-06T02:26:59.017Z,5.08
2019-05-06T02:29:35.037Z,4.97
2019-05-06T02:32:25.641Z,5.33
2019-05-06T02:34:54.894Z,5.10
2019-05-06T02:37:40.251Z,5.60
2019-05-06T02:40:24.713Z,5.92
2019-05-06T02:42:55.318Z,5.92
2019-05-06T02:45:27.006Z,6.62
2019-05-06T02:48:04.394Z,6.30
2019-05-06T02:50:46.330Z,5.87
2019-05-06T02:53:19.346Z,7.22
2019-05-06T02:55:53.147Z,9.13
2019-05-06T02:58:24.185Z,12.40
2019-05-06T03:00:56.671Z,13.95
2019-05-06T03:03:29.171Z,13.70
2019-05-06T03:06:03.543Z,11.65
2019-05-06T03:08:33.962Z,9.95
2019-05-06T03:11:05.508Z,8.70
2019-05-06T03:13:38.116Z,8.43
2019-05-06T03:16:09.504Z,8.18
2019-05-06T03:18:43.378Z,9.83
2019-05-06T03:21:15.535Z,11.00
2019-05-06T03:23:48.644Z,12.80
2019-05-06T03:26:20.116Z,18.30
2019-05-06T03:28:53.555Z,19.37
2019-05-06T03:31:26.459Z,21.35
2019-05-06T03:34:21.766Z,17.62
2019-05-06T03:36:34.692Z,16.50
2019-05-06T03:39:06.181Z,13.30
2019-05-06T03:41:38.697Z,8.33
2019-05-06T03:44:10.055Z,7.42
2019-05-06T03:46:53.973Z,6.83
2019-05-06T03:49:29.364Z,6.40
2019-05-06T03:52:02.779Z,6.10
2019-05-06T03:54:34.759Z,5.72
2019-05-06T03:57:06.232Z,5.67
2019-05-06T03:59:39.245Z,6.12
2019-05-06T04:02:13.173Z,5.33
2019-05-06T04:04:44.279Z,5.50
2019-05-06T04:07:15.686Z,5.60
2019-05-06T04:09:47.135Z,5.72
2019-05-06T04:12:19.812Z,5.80
2019-05-06T04:14:54.027Z,5.70
2019-05-06T04:17:33.008Z,6.22
2019-05-06T04:23:05.992Z,10.13
2019-05-06T04:25:52.681Z,13.30
2019-05-06T04:28:34.170Z,15.75
2019-05-06T04:31:06.243Z,16.93
2019-05-06T04:33:37.892Z,13.60
2019-05-06T04:36:09.324Z,13.48
2019-05-06T04:38:43.387Z,11.05
2019-05-06T04:41:14.290Z,9.08
2019-05-06T04:43:45.898Z,8.25
2019-05-06T04:46:17.319Z,8.20
2019-05-06T04:48:48.555Z,7.85
2019-05-06T04:51:24.391Z,8.25
2019-05-06T04:53:54.503Z,53.13
2019-05-06T04:56:25.832Z,10.23
2019-05-06T04:58:57.437Z,9.15
2019-05-06T05:01:28.905Z,10.23
2019-05-06T05:04:03.272Z,9.38
2019-05-06T05:06:33.517Z,9.05
2019-05-06T05:09:06.395Z,8.08
2019-05-06T05:11:42.534Z,7.28
2019-05-06T05:14:15.772Z,7.25
2019-05-06T05:17:02.221Z,6.78
2019-05-06T05:19:34.117Z,6.80
2019-05-06T05:22:08.532Z,5.83
2019-05-06T05:24:40.023Z,5.90
2019-05-06T05:27:12.568Z,7.10
2019-05-06T05:29:44.248Z,11.63
2019-05-06T05:32:15.698Z,14.13
2019-05-06T05:34:49.343Z,15.50
2019-05-06T05:37:22.614Z,17.57
2019-05-06T05:39:53.839Z,19.00
2019-05-06T05:42:30.126Z,18.85
2019-05-06T05:45:02.656Z,20.95
2019-05-06T05:47:35.372Z,17.73
2019-05-06T05:50:13.977Z,17.20
2019-05-06T05:52:45.344Z,16.20
2019-05-06T05:55:16.805Z,14.80
2019-05-06T05:57:48.160Z,15.08
2019-05-06T06:00:22.482Z,15.70
2019-05-06T06:02:53.881Z,14.38
2019-05-06T06:05:25.288Z,13.13
2019-05-06T06:07:57.108Z,12.90
2019-05-06T06:10:42.470Z,11.70
2019-05-06T06:13:13.510Z,12.25
2019-05-06T06:15:52.559Z,11.55
2019-05-06T06:18:28.604Z,10.75
2019-05-06T06:21:17.751Z,11.38
2019-05-06T06:23:42.493Z,10.70
2019-05-06T06:26:13.938Z,10.95
2019-05-06T06:28:46.443Z,10.95
2019-05-06T06:31:19.919Z,9.45
2019-05-06T06:33:53.100Z,10.32
2019-05-06T06:36:26.249Z,8.43
2019-05-06T06:38:59.371Z,8.35
2019-05-06T06:41:32.289Z,8.73
2019-05-06T06:44:05.583Z,10.25
2019-05-06T06:46:37.103Z,9.60
2019-05-06T06:49:08.676Z,9.93
2019-05-06T06:51:42.535Z,8.98
2019-05-06T06:54:13.960Z,8.50
2019-05-06T06:56:47.103Z,8.65
2019-05-06T06:59:22.170Z,7.33
2019-05-06T07:02:12.121Z,5.40
2019-05-06T07:04:56.711Z,4.60
2019-05-06T07:07:41.346Z,5.58
2019-05-06T07:10:03.326Z,4.10
2019-05-06T07:12:34.801Z,4.12
2019-05-06T07:15:07.876Z,4.65
2019-05-06T07:17:41.860Z,4.60
2019-05-06T07:20:14.962Z,4.65
2019-05-06T07:22:48.432Z,4.35
2019-05-06T07:25:22.106Z,4.50
2019-05-06T07:27:53.226Z,5.72
2019-05-06T07:30:26.219Z,4.40
2019-05-06T07:33:00.436Z,4.33
2019-05-06T07:35:40.083Z,4.37
2019-05-06T07:38:03.988Z,3.83
2019-05-06T07:40:35.342Z,4.33
2019-05-06T07:43:27.829Z,4.28
2019-05-06T07:46:02.537Z,4.17
2019-05-06T07:48:35.413Z,4.80
2019-05-06T07:51:06.879Z,4.15
2019-05-06T07:53:38.498Z,4.25
2019-05-06T07:56:12.104Z,4.92
2019-05-06T07:58:43.593Z,4.53
2019-05-06T08:01:15.088Z,3.77
2019-05-06T08:03:46.490Z,3.75
2019-05-06T08:06:18.163Z,3.47
2019-05-06T08:08:49.684Z,3.52
2019-05-06T08:11:22.635Z,3.12
2019-05-06T08:13:54.270Z,3.30
2019-05-06T08:16:27.365Z,3.08
2019-05-06T08:18:59.949Z,2.95
2019-05-06T08:21:39.027Z,3.35
2019-05-06T08:24:12.050Z,2.85
2019-05-06T08:26:43.635Z,3.17
2019-05-06T08:29:16.140Z,2.75
2019-05-06T08:31:47.519Z,3.10
2019-05-06T08:34:19.350Z,2.77
2019-05-06T08:36:53.335Z,2.70
2019-05-06T08:39:24.872Z,2.87
2019-05-06T08:41:56.428Z,2.60
2019-05-06T08:44:27.845Z,2.60
2019-05-06T08:47:02.017Z,2.90
2019-05-06T08:49:34.815Z,3.27
2019-05-06T08:52:07.842Z,3.10
2019-05-06T08:54:43.717Z,3.00
2019-05-06T08:57:16.658Z,2.60
2019-05-06T08:59:48.593Z,3.00
2019-05-06T09:02:22.867Z,2.75
2019-05-06T09:04:54.281Z,2.35
2019-05-06T09:07:25.602Z,2.42
2019-05-06T09:09:56.971Z,3.00
2019-05-06T09:12:28.969Z,3.20
2019-05-06T09:15:03.267Z,2.67
2019-05-06T09:17:33.729Z,2.60
2019-05-06T09:20:06.360Z,2.77
2019-05-06T09:22:37.686Z,2.83
2019-05-06T09:25:09.314Z,2.85
2019-05-06T09:27:48.219Z,2.98
2019-05-06T09:30:23.316Z,2.50
2019-05-06T09:32:54.727Z,2.80
2019-05-06T09:35:26.244Z,2.30
2019-05-06T09:37:57.759Z,2.67
2019-05-06T09:40:29.121Z,2.20
2019-05-06T09:43:04.676Z,2.58
2019-05-06T09:45:34.414Z,2.62
2019-05-06T09:48:13.191Z,3.17
2019-05-06T09:50:46.845Z,2.77
2019-05-06T09:53:19.995Z,2.47
2019-05-06T09:56:05.478Z,2.33
2019-05-06T09:58:38.533Z,2.10
2019-05-06T10:01:10.186Z,2.00
2019-05-06T10:03:42.956Z,2.35
2019-05-06T10:06:14.468Z,2.62
2019-05-06T10:08:45.887Z,2.83
2019-05-06T10:11:17.484Z,2.30
2019-05-06T10:13:49.020Z,2.20
2019-05-06T10:16:20.458Z,2.20
2019-05-06T10:18:52.496Z,2.90
2019-05-06T10:21:24.902Z,2.55
2019-05-06T10:23:56.455Z,2.08
2019-05-06T10:26:29.645Z,2.30
2019-05-06T10:29:08.737Z,2.58
2019-05-06T10:31:48.117Z,2.15
2019-05-06T10:34:19.543Z,3.00
2019-05-06T10:37:17.969Z,2.33
2019-05-06T10:39:49.147Z,3.33
2019-05-06T10:42:23.525Z,2.37
2019-05-06T10:45:14.840Z,3.12
2019-05-06T10:47:46.416Z,2.47
2019-05-06T10:50:17.998Z,2.25
2019-05-06T10:53:07.322Z,2.00
2019-05-06T10:55:42.735Z,6.45
2019-05-06T10:58:15.181Z,5.05
2019-05-06T11:00:48.815Z,8.28
2019-05-06T11:03:22.652Z,2.10
2019-05-06T11:05:55.504Z,2.58
2019-05-06T11:08:27.032Z,4.47
2019-05-06T11:11:14.478Z,3.83
2019-05-06T11:13:32.268Z,6.72
2019-05-06T11:16:04.093Z,2.40
2019-05-06T11:18:35.494Z,2.35
2019-05-06T11:21:06.847Z,2.20
2019-05-06T11:23:38.307Z,2.37
2019-05-06T11:26:13.000Z,2.10
2019-05-06T11:28:54.393Z,2.00
2019-05-06T11:31:32.961Z,1.80
2019-05-06T11:34:23.109Z,2.37
2019-05-06T11:36:56.305Z,2.05
2019-05-06T11:39:28.694Z,5.45
2019-05-06T11:42:23.470Z,2.22
2019-05-06T11:44:36.413Z,2.65
2019-05-06T11:47:07.814Z,2.50
2019-05-06T11:49:39.400Z,2.27
2019-05-06T11:52:13.026Z,2.27
2019-05-06T11:54:44.041Z,2.55
2019-05-06T11:57:15.534Z,1.92
2019-05-06T11:59:47.335Z,2.47
2019-05-06T12:02:26.679Z,2.87
2019-05-06T12:04:58.214Z,2.60
2019-05-06T12:07:30.244Z,2.33
2019-05-06T12:10:02.553Z,1.98
2019-05-06T12:12:34.123Z,2.72
2019-05-06T12:15:07.418Z,1.95
2019-05-06T12:17:38.873Z,3.08
2019-05-06T12:20:12.932Z,12.65
2019-05-06T12:22:44.016Z,2.60
2019-05-06T12:25:15.784Z,1.80
2019-05-06T12:27:47.407Z,2.02
2019-05-06T12:30:23.022Z,2.55
2019-05-06T12:32:56.246Z,2.75
2019-05-06T12:35:32.127Z,3.02
2019-05-06T12:38:11.373Z,1.90
2019-05-06T12:40:39.631Z,2.20
2019-05-06T12:43:25.079Z,1.72
2019-05-06T12:46:02.803Z,2.40
2019-05-06T12:48:44.041Z,2.60
2019-05-06T12:51:15.183Z,2.10
2019-05-06T12:53:46.612Z,3.20
2019-05-06T12:56:19.052Z,2.30
2019-05-06T12:58:52.588Z,2.33
2019-05-06T13:01:24.197Z,8.93
2019-05-06T13:03:55.729Z,2.25
2019-05-06T13:06:27.189Z,2.00
2019-05-06T13:09:04.113Z,1.80
2019-05-06T13:11:32.555Z,1.85
2019-05-06T13:14:04.342Z,3.50
2019-05-06T13:16:37.013Z,2.10
2019-05-06T13:19:08.250Z,2.50
2019-05-06T13:21:42.025Z,1.92
2019-05-06T13:24:13.736Z,5.40
2019-05-06T13:26:45.420Z,1.95
2019-05-06T13:29:18.394Z,2.10
2019-05-06T13:31:52.792Z,2.30
2019-05-06T13:34:23.677Z,2.05
2019-05-06T13:36:56.431Z,1.75
2019-05-06T13:39:28.001Z,2.30
2019-05-06T13:41:59.749Z,2.20
2019-05-06T13:44:32.034Z,2.00
2019-05-06T13:47:12.139Z,1.98
2019-05-06T13:49:45.264Z,2.72
2019-05-06T13:52:17.377Z,1.85
2019-05-06T13:54:48.824Z,1.92
2019-05-06T13:57:21.277Z,2.27
2019-05-06T13:59:53.448Z,2.00
2019-05-06T14:02:26.663Z,1.72
2019-05-06T14:04:58.146Z,1.70
2019-05-06T14:07:29.938Z,2.08
2019-05-06T14:10:02.650Z,1.77
2019-05-06T14:12:34.531Z,1.90
2019-05-06T14:15:07.845Z,1.85
2019-05-06T14:17:39.716Z,2.17
2019-05-06T14:20:12.646Z,1.77
2019-05-06T14:22:44.367Z,2.20
2019-05-06T14:25:23.217Z,2.22
2019-05-06T14:27:59.609Z,1.70
2019-05-06T14:30:42.902Z,1.85
2019-05-06T14:33:16.482Z,1.80
2019-05-06T14:35:48.071Z,2.55
2019-05-06T14:38:24.323Z,2.00
2019-05-06T14:41:07.135Z,1.82
2019-05-06T14:43:34.694Z,1.90
2019-05-06T14:46:06.164Z,2.12
2019-05-06T14:48:37.954Z,2.95
2019-05-06T14:51:09.571Z,2.40
2019-05-06T14:53:43.396Z,2.20
2019-05-06T14:56:18.893Z,2.55
2019-05-06T14:59:07.092Z,5.97
2019-05-06T15:01:39.260Z,3.00
2019-05-06T15:04:12.482Z,2.37
2019-05-06T15:06:44.250Z,2.05
2019-05-06T15:09:15.937Z,2.20
2019-05-06T15:11:48.983Z,1.90
2019-05-06T15:14:22.702Z,2.00
2019-05-06T15:16:54.987Z,1.87
2019-05-06T15:19:26.572Z,1.72
2019-05-06T15:22:02.388Z,1.70
2019-05-06T15:24:37.354Z,2.25
2019-05-06T15:27:12.170Z,2.55
2019-05-06T15:29:53.165Z,2.85
2019-05-06T15:32:25.716Z,1.98
2019-05-06T15:38:43.966Z,2.72
2019-05-06T15:41:17.136Z,2.55
2019-05-06T15:43:48.581Z,2.87
2019-05-06T15:46:22.783Z,2.40
2019-05-06T15:48:54.388Z,2.52
2019-05-06T15:51:34.937Z,3.60
2019-05-06T15:54:06.743Z,2.62
2019-05-06T15:56:38.179Z,2.50
2019-05-06T15:59:11.977Z,2.35
2019-05-06T16:01:43.215Z,2.67
2019-05-06T16:04:14.799Z,2.40
2019-05-06T16:06:46.263Z,2.83
2019-05-06T16:09:17.734Z,2.05
2019-05-06T16:11:49.264Z,2.45
2019-05-06T16:14:22.907Z,2.45
2019-05-06T16:16:55.292Z,2.30
2019-05-06T16:19:28.760Z,2.58
2019-05-06T16:22:00.275Z,2.58
2019-05-06T16:24:36.432Z,2.55
2019-05-06T16:27:07.904Z,2.65
2019-05-06T16:29:39.462Z,2.67
2019-05-06T16:32:11.049Z,2.80
2019-05-06T16:34:43.432Z,2.30
2019-05-06T16:37:14.912Z,2.33
2019-05-06T16:39:46.353Z,2.60
2019-05-06T16:42:17.876Z,2.22
2019-05-06T16:44:49.409Z,2.55
2019-05-06T16:47:38.463Z,2.27
2019-05-06T16:50:15.967Z,2.30
2019-05-06T16:52:47.515Z,2.00
2019-05-06T16:55:24.285Z,2.12
2019-05-06T16:57:58.075Z,2.55
2019-05-06T17:00:32.174Z,2.62
2019-05-06T17:03:14.643Z,2.80
2019-05-06T17:06:03.283Z,2.30
2019-05-06T17:08:36.524Z,2.35
2019-05-06T17:11:08.030Z,2.35
2019-05-06T17:13:39.753Z,2.27
2019-05-06T17:16:13.683Z,2.33
2019-05-06T17:18:44.246Z,2.10
2019-05-06T17:21:15.922Z,1.95
2019-05-06T17:23:47.502Z,2.30
2019-05-06T17:26:18.953Z,2.60
2019-05-06T17:28:56.614Z,2.58
2019-05-06T17:31:32.687Z,2.55
2019-05-06T17:34:05.963Z,2.17
2019-05-06T17:36:38.933Z,2.00
2019-05-06T17:39:11.354Z,2.00
2019-05-06T17:41:48.531Z,2.60
2019-05-06T17:44:16.812Z,1.98
2019-05-06T17:46:49.699Z,2.20
2019-05-06T17:49:25.581Z,2.50
2019-05-06T17:52:04.709Z,2.50
2019-05-06T17:54:36.201Z,3.10
2019-05-06T17:57:07.876Z,3.10
2019-05-06T17:59:42.238Z,2.70
2019-05-06T18:02:19.448Z,2.65
2019-05-06T18:04:53.073Z,2.87
2019-05-06T18:07:24.145Z,2.67
2019-05-06T18:09:55.674Z,2.62
2019-05-06T18:12:27.001Z,2.72
2019-05-06T18:14:58.509Z,2.65
2019-05-06T18:17:30.265Z,2.70
2019-05-06T18:20:03.045Z,2.92
2019-05-06T18:22:34.445Z,4.87
2019-05-06T18:25:06.358Z,3.20
2019-05-06T18:27:38.025Z,2.75
2019-05-06T18:30:21.931Z,4.17
2019-05-06T18:32:43.855Z,3.92
2019-05-06T18:35:15.274Z,3.85
2019-05-06T18:37:46.776Z,3.92
2019-05-06T18:40:18.287Z,2.95
2019-05-06T18:42:52.507Z,3.20
2019-05-06T18:45:25.739Z,3.35
2019-05-06T18:47:57.207Z,2.90
2019-05-06T18:50:28.654Z,2.90
2019-05-06T18:53:02.298Z,2.50
2019-05-06T18:55:34.059Z,2.72
2019-05-06T18:58:06.461Z,2.95
2019-05-06T19:00:37.788Z,3.90
2019-05-06T19:03:09.288Z,2.60
2019-05-06T19:05:42.874Z,2.40
2019-05-06T19:08:21.883Z,2.02
2019-05-06T19:10:53.368Z,2.55
2019-05-06T19:13:24.810Z,2.52
2019-05-06T19:15:56.448Z,2.50
2019-05-06T19:18:27.854Z,2.58
2019-05-06T19:20:59.293Z,2.72
2019-05-06T19:23:32.120Z,2.80
2019-05-06T19:26:04.077Z,2.67
2019-05-06T19:28:35.535Z,2.42
2019-05-06T19:31:08.183Z,2.52
2019-05-06T19:33:39.855Z,2.10
2019-05-06T19:36:12.591Z,2.55
2019-05-06T19:38:44.335Z,2.30
2019-05-06T19:41:15.864Z,2.27
2019-05-06T19:43:47.269Z,2.25
2019-05-06T19:46:18.684Z,2.20
2019-05-06T19:48:52.270Z,2.25
2019-05-06T19:51:23.516Z,2.02
2019-05-06T19:53:55.090Z,2.47
2019-05-06T19:56:26.591Z,2.00
2019-05-06T19:58:58.226Z,2.50
2019-05-06T20:01:32.199Z,2.15
2019-05-06T20:04:03.221Z,2.17
2019-05-06T20:06:48.885Z,2.30
2019-05-06T20:09:23.124Z,2.27
2019-05-06T20:12:02.842Z,2.17
2019-05-06T20:14:34.309Z,2.20
2019-05-06T20:17:06.014Z,2.60
2019-05-06T20:19:37.472Z,2.37
2019-05-06T20:22:08.991Z,3.08
2019-05-06T20:24:42.476Z,3.12
2019-05-06T20:27:13.595Z,2.80
2019-05-06T20:29:45.189Z,2.90
2019-05-06T20:32:16.781Z,3.15
2019-05-06T20:34:50.025Z,2.95
2019-05-06T20:37:22.313Z,3.55
2019-05-06T20:39:53.641Z,3.00
2019-05-06T20:42:26.122Z,3.15
2019-05-06T20:44:57.464Z,3.70
2019-05-06T20:47:28.834Z,3.75
2019-05-06T20:50:02.233Z,4.00
2019-05-06T20:52:33.312Z,4.12
2019-05-06T20:55:12.451Z,3.92
2019-05-06T20:57:42.182Z,4.75
2019-05-06T21:00:15.773Z,4.30
2019-05-06T21:02:47.376Z,5.28
2019-05-06T21:05:18.753Z,5.85
2019-05-06T21:07:52.410Z,5.25
2019-05-06T21:10:23.411Z,5.70
2019-05-06T21:12:55.235Z,5.15
2019-05-06T21:15:27.682Z,5.28
2019-05-06T21:18:03.605Z,5.58
2019-05-06T21:20:34.133Z,5.60
2019-05-06T21:23:05.572Z,4.97
2019-05-06T21:25:36.969Z,4.87
2019-05-06T21:28:08.529Z,6.05
2019-05-06T21:30:40.039Z,5.15
2019-05-06T21:33:12.432Z,5.45
2019-05-06T21:35:44.136Z,7.17
2019-05-06T21:38:15.493Z,5.12
2019-05-06T21:40:46.898Z,5.12
2019-05-06T21:43:18.425Z,5.30
2019-05-06T21:45:49.843Z,4.58
2019-05-06T21:48:22.216Z,4.83
2019-05-06T21:50:53.800Z,4.70
2019-05-06T21:53:25.281Z,4.58
2019-05-06T21:55:56.674Z,4.50
2019-05-06T21:58:27.903Z,4.70
2019-05-06T22:01:02.341Z,4.45
2019-05-06T22:03:35.601Z,4.20
2019-05-06T22:06:07.052Z,3.62
2019-05-06T22:08:38.421Z,3.83
2019-05-06T22:11:09.765Z,3.50
2019-05-06T22:13:42.573Z,3.55
2019-05-06T22:16:14.162Z,3.72
2019-05-06T22:18:45.756Z,3.67
2019-05-06T22:21:18.722Z,3.40
2019-05-06T22:23:54.483Z,4.05
2019-05-06T22:26:27.077Z,3.35
2019-05-06T22:28:58.430Z,3.60
2019-05-06T22:31:29.799Z,3.90
2019-05-06T22:34:01.114Z,3.98
2019-05-06T22:36:32.534Z,4.03
2019-05-06T22:39:05.522Z,3.67
2019-05-06T22:41:38.293Z,3.70
2019-05-06T22:44:13.662Z,3.77
2019-05-06T22:46:43.801Z,3.58
2019-05-06T22:49:15.133Z,3.50
2019-05-06T22:51:46.598Z,3.65
2019-05-06T22:54:17.909Z,3.60
2019-05-06T22:56:49.292Z,3.45
2019-05-06T22:59:24.459Z,4.05
2019-05-06T23:01:58.218Z,3.62
2019-05-06T23:04:32.440Z,3.90
2019-05-06T23:07:04.820Z,3.70
2019-05-06T23:09:36.406Z,3.92
2019-05-06T23:12:07.802Z,4.17
2019-05-06T23:14:39.253Z,4.22
2019-05-06T23:17:12.700Z,4.30
2019-05-06T23:19:43.613Z,4.17
2019-05-06T23:22:14.889Z,4.72
2019-05-06T23:24:46.201Z,4.78
2019-05-06T23:27:17.803Z,4.95
2019-05-06T23:29:49.231Z,5.62
2019-05-06T23:32:22.741Z,5.37
2019-05-06T23:34:53.831Z,5.12
2019-05-06T23:37:23.930Z,5.62
2019-05-06T23:40:33.447Z,5.60
2019-05-06T23:43:42.673Z,5.12
2019-05-06T23:46:52.840Z,5.40
2019-05-06T23:50:00.277Z,5.30
2019-05-06T23:53:07.962Z,5.30
2019-05-06T23:56:15.787Z,5.10
2019-05-06T23:58:47.117Z,4.83
